Time;durP1;ratioP1;P1;durP2;ratioP2;P2;SDS_P1;SDS_P2;PMS_P1;PMS_P2;Temp;Humidity;BMP_temperature;BMP_pressure;BME280_temperature;BME280_humidity;BME280_pressure;Samples;Min_cycle;Max_cycle;Signal;HPM_P1;HPM_P2
2022/03/18 00:01:24;;;;;;;;;;;;;;;13.36;37.70;100929.75;4455587;32;33773;-80
2022/03/18 00:03:52;;;;;;;;;;;;;;;13.33;37.54;100929.69;4460172;32;35163;-81
2022/03/18 00:06:19;;;;;;;;;;;;;;;13.38;37.22;100928.09;4466925;32;34564;-81
2022/03/18 00:08:47;;;;;;;;;;;;;;;13.42;37.28;100939.47;4466629;32;33748;-80
2022/03/18 00:11:15;;;;;;;;;;;;;;;13.47;36.56;100935.28;4467534;32;34261;-80
2022/03/18 00:13:42;;;;;;;;;;;;;;;13.60;36.13;100942.63;4447727;32;33584;-79
2022/03/18 00:16:10;;;;;;;;;;;;;;;13.47;36.54;100932.66;4457498;32;34088;-80
2022/03/18 00:18:37;;;;;;;;;;;;;;;13.43;36.59;100936.03;4454732;32;32982;-80
2022/03/18 00:21:07;;;;;;;;;;;;;;;13.43;36.45;100936.03;4448954;32;35200;-80
2022/03/18 00:23:34;;;;;;;;;;;;;;;13.30;36.51;100936.53;4453155;32;34090;-80
2022/03/18 00:26:02;;;;;;;;;;;;;;;13.25;36.71;100944.16;4443112;32;32963;-81
2022/03/18 00:28:29;;;;;;;;;;;;;;;13.30;36.57;100952.16;4440280;32;32901;-80
2022/03/18 00:30:57;;;;;;;;;;;;;;;13.28;36.54;100943.38;4465775;32;33687;-80
2022/03/18 00:33:25;;;;;;;;;;;;;;;13.25;36.65;100948.50;4449895;32;34561;-79
2022/03/18 00:35:52;;;;;;;;;;;;;;;13.26;36.50;100945.03;4452746;32;34833;-82
2022/03/18 00:38:19;;;;;;;;;;;;;;;13.10;37.08;100947.16;4429007;32;33592;-79
2022/03/18 00:40:50;;;;;;;;;;;;;;;13.32;36.62;100955.66;4460648;32;35042;-79
2022/03/18 00:43:18;;;;;;;;;;;;;;;13.27;36.67;100952.03;4458830;32;34562;-78
2022/03/18 00:45:45;;;;;;;;;;;;;;;13.25;37.16;100953.69;4460116;32;33834;-79
2022/03/18 00:53:45;;;;;;;;;;;;;;;13.24;36.85;100950.22;4456914;32;34484;-80
2022/03/18 00:56:12;;;;;;;;;;;;;;;13.26;36.55;100952.84;4452014;32;34853;-80
2022/03/18 00:58:40;;;;;;;;;;;;;;;13.36;35.92;100957.53;4463506;32;33169;-80
2022/03/18 01:01:07;;;;;;;;;;;;;;;13.16;36.78;100954.28;4459433;32;34275;-78
2022/03/18 01:03:34;;;;;;;;;;;;;;;13.17;36.81;100958.66;4445594;32;34279;-80
2022/03/18 01:06:02;;;;;;;;;;;;;;;13.06;37.04;100960.03;4466174;32;34240;-80
2022/03/18 01:08:30;;;;;;;;;;;;;;;13.01;37.39;100959.88;4464011;32;33593;-80
2022/03/18 01:10:57;;;;;;;;;;;;;;;13.13;36.94;100955.06;4440300;32;35158;-80
2022/03/18 01:13:25;;;;;;;;;;;;;;;13.26;36.33;100958.06;4449358;32;34343;-79
2022/03/18 01:15:53;;;;;;;;;;;;;;;13.06;36.56;100955.69;4451574;32;34255;-80
2022/03/18 01:18:20;;;;;;;;;;;;;;;12.94;36.99;100957.94;4457777;32;32788;-80
2022/03/18 01:20:47;;;;;;;;;;;;;;;13.03;36.65;100958.25;4438244;32;33204;-80
2022/03/18 01:23:15;;;;;;;;;;;;;;;12.94;36.83;100959.66;4453260;32;34208;-80
2022/03/18 01:25:42;;;;;;;;;;;;;;;12.89;37.09;100959.50;4437546;32;33932;-78
2022/03/18 01:28:09;;;;;;;;;;;;;;;12.73;37.51;100963.34;4453882;32;33150;-79
2022/03/18 01:30:37;;;;;;;;;;;;;;;12.72;37.51;100965.87;4449562;32;34318;-78
2022/03/18 01:33:04;;;;;;;;;;;;;;;12.71;37.46;100958.91;4453071;32;34102;-79
2022/03/18 01:35:31;;;;;;;;;;;;;;;12.55;38.13;100961.00;4459254;32;33830;-80
2022/03/18 01:37:58;;;;;;;;;;;;;;;12.66;38.05;100954.44;4453717;32;34220;-79
2022/03/18 01:40:26;;;;;;;;;;;;;;;12.73;37.97;100962.44;4465640;32;35019;-80
2022/03/18 01:42:53;;;;;;;;;;;;;;;12.63;38.11;100969.94;4459605;32;35218;-79
2022/03/18 01:45:20;;;;;;;;;;;;;;;12.75;37.91;100972.06;4448544;32;33825;-80
2022/03/18 01:47:47;;;;;;;;;;;;;;;12.74;37.80;100961.63;4467642;32;33931;-78
2022/03/18 01:50:15;;;;;;;;;;;;;;;12.73;37.76;100975.44;4473514;32;34876;-79
2022/03/18 01:52:42;;;;;;;;;;;;;;;12.57;38.28;100972.34;4429071;32;34294;-78
2022/03/18 01:55:14;;;;;;;;;;;;;;;12.54;38.39;100972.25;4451867;32;34900;-80
2022/03/18 01:57:44;;;;;;;;;;;;;;;12.27;40.16;100986.91;4466445;32;33076;-80
2022/03/18 02:00:11;;;;;;;;;;;;;;;11.65;42.71;100978.56;4451600;32;33931;-80
2022/03/18 02:02:39;;;;;;;;;;;;;;;11.41;44.14;100978.53;4460694;32;34066;-80
2022/03/18 02:05:06;;;;;;;;;;;;;;;11.19;44.51;100988.09;4441805;32;34122;-80
2022/03/18 02:07:34;;;;;;;;;;;;;;;11.85;42.85;100977.62;4441432;32;34171;-79
2022/03/18 02:10:01;;;;;;;;;;;;;;;11.61;43.12;100984.47;4453670;32;35034;-80
2022/03/18 02:12:28;;;;;;;;;;;;;;;11.77;41.92;100981.63;4441584;32;34186;-80
2022/03/18 02:14:56;;;;;;;;;;;;;;;12.32;40.52;100985.34;4464688;32;34252;-80
2022/03/18 02:17:23;;;;;;;;;;;;;;;12.65;39.57;100980.41;4438700;32;34027;-78
2022/03/18 02:19:50;;;;;;;;;;;;;;;12.75;39.11;100984.19;4461572;32;35052;-78
2022/03/18 02:22:18;;;;;;;;;;;;;;;12.05;40.09;100990.47;4467521;32;35172;-78
2022/03/18 02:24:47;;;;;;;;;;;;;;;11.69;41.06;100999.53;4445959;32;34746;-78
2022/03/18 02:27:14;;;;;;;;;;;;;;;10.50;44.31;101009.47;4441690;32;33033;-78
2022/03/18 02:29:42;;;;;;;;;;;;;;;10.90;43.61;101010.25;4450683;32;33917;-78
2022/03/18 02:32:10;;;;;;;;;;;;;;;9.70;46.88;101019.75;4441457;32;33942;-78
2022/03/18 02:34:37;;;;;;;;;;;;;;;8.80;49.17;101030.06;4459941;32;34421;-77
2022/03/18 02:37:07;;;;;;;;;;;;;;;8.86;49.64;101017.41;4462097;32;32930;-78
2022/03/18 02:39:35;;;;;;;;;;;;;;;8.35;51.39;101024.31;4438937;32;34040;-78
2022/03/18 02:42:02;;;;;;;;;;;;;;;7.98;52.54;101035.31;4459145;32;35104;-78
2022/03/18 02:44:29;;;;;;;;;;;;;;;7.62;53.86;101034.25;4447507;32;34031;-78
2022/03/18 02:46:58;;;;;;;;;;;;;;;8.42;51.97;101039.38;4439993;32;32519;-78
2022/03/18 02:49:25;;;;;;;;;;;;;;;8.25;52.52;101034.16;4467178;32;34098;-78
2022/03/18 02:51:53;;;;;;;;;;;;;;;8.37;52.30;101043.34;4466519;32;35097;-78
2022/03/18 02:54:20;;;;;;;;;;;;;;;7.32;54.78;101048.09;4472299;32;33828;-78
2022/03/18 02:56:47;;;;;;;;;;;;;;;7.77;53.32;101046.28;4467273;32;33131;-78
2022/03/18 02:59:15;;;;;;;;;;;;;;;7.88;51.71;101044.28;4453360;32;33631;-78
2022/03/18 03:01:43;;;;;;;;;;;;;;;7.54;52.00;101045.03;4444327;32;35133;-76
2022/03/18 03:04:13;;;;;;;;;;;;;;;6.74;52.17;101057.69;4427331;32;33343;-78
2022/03/18 03:09:26;;;;;;;;;;;;;;;6.69;50.56;101064.25;4452408;32;34059;-79
2022/03/18 03:11:53;;;;;;;;;;;;;;;6.89;49.71;101070.56;4438898;32;34277;-80
2022/03/18 03:14:21;;;;;;;;;;;;;;;6.82;48.49;101065.88;4459167;32;34294;-79
2022/03/18 03:16:48;;;;;;;;;;;;;;;7.12;46.75;101065.81;4461297;32;32971;-80
2022/03/18 03:19:15;;;;;;;;;;;;;;;6.69;47.11;101074.56;4461312;32;34876;-81
2022/03/18 03:21:42;;;;;;;;;;;;;;;6.50;47.20;101082.88;4452618;32;35063;-80
2022/03/18 03:24:10;;;;;;;;;;;;;;;6.17;47.08;101079.16;4464726;32;32653;-78
2022/03/18 03:26:37;;;;;;;;;;;;;;;6.36;45.83;101077.69;4455697;32;32888;-78
2022/03/18 03:29:04;;;;;;;;;;;;;;;6.54;45.87;101081.37;4462902;32;34085;-80
2022/03/18 03:31:32;;;;;;;;;;;;;;;6.33;45.56;101089.62;4438320;32;34930;-79
2022/03/18 03:33:59;;;;;;;;;;;;;;;7.02;43.89;101096.25;4442199;32;33489;-79
2022/03/18 03:36:26;;;;;;;;;;;;;;;7.41;42.73;101095.88;4463783;32;33884;-79
2022/03/18 03:38:53;;;;;;;;;;;;;;;7.51;42.33;101100.75;4454671;32;35034;-79
2022/03/18 03:41:22;;;;;;;;;;;;;;;7.41;41.24;101095.88;4462894;32;35438;-81
2022/03/18 03:43:49;;;;;;;;;;;;;;;6.82;42.06;101102.84;4462952;32;34112;-80
2022/03/18 03:46:17;;;;;;;;;;;;;;;6.85;41.91;101112.44;4445793;32;34123;-79
2022/03/18 03:48:44;;;;;;;;;;;;;;;6.76;41.23;101112.78;4451688;32;33730;-78
2022/03/18 03:51:11;;;;;;;;;;;;;;;6.64;41.50;101112.06;4453211;32;35351;-79
2022/03/18 03:53:39;;;;;;;;;;;;;;;7.01;40.40;101116.81;4461382;32;33940;-79
2022/03/18 03:56:06;;;;;;;;;;;;;;;6.68;40.89;101123.44;4445680;32;33599;-79
2022/03/18 03:58:33;;;;;;;;;;;;;;;6.93;40.32;101126.69;4455877;32;33962;-79
2022/03/18 04:01:00;;;;;;;;;;;;;;;6.77;40.12;101126.56;4457417;32;35716;-78
2022/03/18 04:03:28;;;;;;;;;;;;;;;6.84;39.84;101131.28;4460409;32;34393;-78
2022/03/18 04:05:55;;;;;;;;;;;;;;;6.81;39.49;101126.81;4464094;32;34806;-80
2022/03/18 04:08:23;;;;;;;;;;;;;;;7.20;38.59;101131.66;4440780;32;33105;-81
2022/03/18 04:10:50;;;;;;;;;;;;;;;7.39;38.38;101128.44;4464257;32;33983;-79
2022/03/18 04:13:17;;;;;;;;;;;;;;;7.34;37.70;101135.03;4438463;32;33640;-80
2022/03/18 04:15:45;;;;;;;;;;;;;;;7.59;37.25;101135.63;4465035;32;34150;-80
2022/03/18 04:18:12;;;;;;;;;;;;;;;7.97;36.30;101136.84;4467553;32;34846;-81
2022/03/18 04:20:39;;;;;;;;;;;;;;;7.38;36.29;101139.56;4464983;32;34288;-79
2022/03/18 04:23:07;;;;;;;;;;;;;;;7.46;36.41;101144.38;4456250;32;34717;-81
2022/03/18 04:25:34;;;;;;;;;;;;;;;6.89;36.69;101149.59;4467568;32;33300;-81
2022/03/18 04:28:01;;;;;;;;;;;;;;;7.02;36.70;101146.94;4454579;32;34397;-80
2022/03/18 04:30:28;;;;;;;;;;;;;;;7.04;36.22;101151.38;4457280;32;34062;-81
2022/03/18 04:32:56;;;;;;;;;;;;;;;7.47;35.38;101158.16;4438294;32;32778;-80
2022/03/18 04:35:23;;;;;;;;;;;;;;;7.28;35.44;101151.94;4458594;32;33386;-80
2022/03/18 04:37:51;;;;;;;;;;;;;;;7.10;35.13;101158.59;4451361;32;33996;-80
2022/03/18 04:40:18;;;;;;;;;;;;;;;6.81;35.96;101156.88;4461104;32;34404;-79
2022/03/18 04:42:45;;;;;;;;;;;;;;;7.50;34.13;101156.66;4465760;32;34738;-80
2022/03/18 04:45:13;;;;;;;;;;;;;;;7.40;34.33;101162.06;4466985;32;34153;-79
2022/03/18 04:47:40;;;;;;;;;;;;;;;7.22;34.30;101174.78;4440084;32;34383;-80
2022/03/18 04:50:08;;;;;;;;;;;;;;;7.69;34.24;101165.41;4443078;32;34363;-80
2022/03/18 04:52:36;;;;;;;;;;;;;;;7.97;33.41;101170.44;4425268;32;34821;-80
2022/03/18 04:55:03;;;;;;;;;;;;;;;7.90;33.20;101170.88;4437392;32;32987;-80
2022/03/18 04:57:31;;;;;;;;;;;;;;;7.66;33.27;101185.91;4448291;32;35122;-79
2022/03/18 04:59:58;;;;;;;;;;;;;;;7.93;33.40;101181.38;4458164;32;34181;-79
2022/03/18 05:02:26;;;;;;;;;;;;;;;7.26;34.02;101192.22;4461058;32;34955;-79
2022/03/18 05:04:54;;;;;;;;;;;;;;;7.70;33.51;101198.19;4460290;32;34182;-80
2022/03/18 05:07:21;;;;;;;;;;;;;;;7.70;33.40;101205.94;4451551;32;34606;-80
2022/03/18 05:09:50;;;;;;;;;;;;;;;7.65;32.78;101205.66;4459814;32;35348;-80
2022/03/18 05:12:17;;;;;;;;;;;;;;;7.50;33.33;101207.34;4443357;32;34704;-80
2022/03/18 05:14:51;;;;;;;;;;;;;;;7.81;32.94;101204.84;4454131;32;33471;-78
2022/03/18 05:17:18;;;;;;;;;;;;;;;7.15;33.56;101206.19;4452605;32;34010;-79
2022/03/18 05:19:45;;;;;;;;;;;;;;;8.04;32.21;101196.69;4444129;32;34311;-80
2022/03/18 05:22:13;;;;;;;;;;;;;;;7.88;32.35;101203.47;4454808;32;34821;-80
2022/03/18 05:24:40;;;;;;;;;;;;;;;8.07;32.11;101205.38;4439000;32;33280;-80
2022/03/18 05:27:07;;;;;;;;;;;;;;;8.86;30.98;101207.13;4449873;32;34749;-80
2022/03/18 05:29:35;;;;;;;;;;;;;;;8.67;30.97;101210.44;4450998;32;34474;-80
2022/03/18 05:32:03;;;;;;;;;;;;;;;8.48;31.14;101208.56;4445461;32;34865;-81
2022/03/18 05:34:30;;;;;;;;;;;;;;;7.94;31.83;101219.31;4453332;32;32908;-77
2022/03/18 05:36:58;;;;;;;;;;;;;;;8.63;30.99;101208.50;4459729;32;33733;-80
2022/03/18 05:39:25;;;;;;;;;;;;;;;9.08;30.55;101219.47;4468759;32;34320;-80
2022/03/18 05:41:52;;;;;;;;;;;;;;;8.39;30.97;101223.59;4428510;32;33963;-79
2022/03/18 05:44:19;;;;;;;;;;;;;;;8.20;30.78;101215.59;4455198;32;32905;-79
2022/03/18 05:46:46;;;;;;;;;;;;;;;8.00;31.66;101230.00;4462164;32;33635;-80
2022/03/18 05:49:17;;;;;;;;;;;;;;;8.49;30.95;101227.56;4449040;32;33814;-79
2022/03/18 05:51:45;;;;;;;;;;;;;;;8.07;31.78;101229.56;4454724;32;34887;-80
2022/03/18 05:54:12;;;;;;;;;;;;;;;7.80;31.84;101241.78;4451079;32;33408;-79
2022/03/18 05:56:54;;;;;;;;;;;;;;;8.53;30.77;101235.56;4439369;32;34150;-79
2022/03/18 05:59:25;;;;;;;;;;;;;;;8.92;30.45;101232.44;4447580;32;33533;-81
2022/03/18 06:01:53;;;;;;;;;;;;;;;8.60;30.88;101246.22;4450790;32;34218;-81
2022/03/18 06:04:20;;;;;;;;;;;;;;;8.73;30.59;101243.50;4463709;32;33212;-80
2022/03/18 06:06:47;;;;;;;;;;;;;;;8.61;30.84;101248.91;4438196;32;34315;-78
2022/03/18 06:12:02;;;;;;;;;;;;;;;7.89;31.94;101252.62;4442965;32;34166;-81
2022/03/18 06:14:29;;;;;;;;;;;;;;;6.86;33.01;101257.69;4466501;32;33430;-80
2022/03/18 06:17:01;;;;;;;;;;;;;;;7.65;32.15;101262.47;4452745;32;33896;-81
2022/03/18 06:19:29;;;;;;;;;;;;;;;7.46;31.94;101263.09;4466552;32;34185;-80
2022/03/18 06:21:56;;;;;;;;;;;;;;;7.83;31.57;101262.59;4466026;32;34312;-80
2022/03/18 06:24:23;;;;;;;;;;;;;;;7.29;32.24;101267.22;4450170;32;33573;-80
2022/03/18 06:26:51;;;;;;;;;;;;;;;7.68;31.82;101267.78;4453878;32;34263;-80
2022/03/18 06:29:19;;;;;;;;;;;;;;;9.16;30.43;101261.28;4468058;32;34401;-80
2022/03/18 06:31:46;;;;;;;;;;;;;;;8.53;30.57;101274.34;4453614;32;33976;-81
2022/03/18 06:34:14;;;;;;;;;;;;;;;7.31;32.69;101280.22;4452022;32;32913;-81
2022/03/18 06:36:42;;;;;;;;;;;;;;;7.54;32.44;101281.59;4452540;32;33982;-81
2022/03/18 06:39:09;;;;;;;;;;;;;;;8.35;31.21;101286.22;4438667;32;35248;-81
2022/03/18 06:41:37;;;;;;;;;;;;;;;6.54;33.51;101284.97;4439304;32;34144;-80
2022/03/18 06:44:05;;;;;;;;;;;;;;;6.55;33.96;101289.31;4443487;32;34058;-81
2022/03/18 06:46:32;;;;;;;;;;;;;;;6.80;33.36;101290.06;4468240;32;34866;-81
2022/03/18 06:49:00;;;;;;;;;;;;;;;6.11;34.23;101292.53;4468048;32;34438;-81
2022/03/18 06:51:27;;;;;;;;;;;;;;;6.60;33.98;101299.94;4449234;32;33933;-81
2022/03/18 06:53:54;;;;;;;;;;;;;;;7.48;32.60;101296.72;4452509;32;33407;-81
2022/03/18 06:56:22;;;;;;;;;;;;;;;7.35;32.53;101289.03;4452585;32;34307;-82
2022/03/18 06:58:49;;;;;;;;;;;;;;;7.42;32.70;101298.91;4452384;32;35108;-81
2022/03/18 07:01:16;;;;;;;;;;;;;;;7.03;33.08;101301.78;4452575;32;34135;-81
2022/03/18 07:03:47;;;;;;;;;;;;;;;7.78;32.34;101300.19;4452311;32;34191;-81
2022/03/18 07:06:14;;;;;;;;;;;;;;;7.00;33.44;101304.16;4452293;32;35158;-81
2022/03/18 07:08:41;;;;;;;;;;;;;;;7.53;33.09;101311.66;4452759;32;34413;-81
2022/03/18 07:11:13;;;;;;;;;;;;;;;7.45;33.00;101305.16;4451005;32;34496;-81
2022/03/18 07:13:42;;;;;;;;;;;;;;;8.56;31.49;101301.16;4451118;32;32937;-82
2022/03/18 07:18:55;;;;;;;;;;;;;;;7.50;32.70;101310.56;4451540;32;35306;-82
2022/03/18 07:21:23;;;;;;;;;;;;;;;8.13;31.76;101320.28;4451197;32;33339;-81
2022/03/18 07:24:09;;;;;;;;;;;;;;;9.06;30.03;101306.50;4452416;32;33115;-82
2022/03/18 07:26:36;;;;;;;;;;;;;;;8.93;29.93;101312.69;4452433;32;34002;-82
2022/03/18 07:29:05;;;;;;;;;;;;;;;7.89;31.41;101321.50;4452366;32;34081;-82
2022/03/18 07:31:32;;;;;;;;;;;;;;;7.89;31.77;101329.22;4451048;32;34347;-82
2022/03/18 07:34:00;;;;;;;;;;;;;;;8.20;31.34;101337.94;4452425;32;33405;-81
2022/03/18 07:36:27;;;;;;;;;;;;;;;7.98;31.74;101340.09;4452449;32;34773;-83
2022/03/18 07:38:54;;;;;;;;;;;;;;;7.46;32.51;101335.34;4450894;32;35042;-82
2022/03/18 07:41:21;;;;;;;;;;;;;;;7.03;33.94;101339.56;4452210;32;33920;-81
2022/03/18 07:43:48;;;;;;;;;;;;;;;7.15;34.66;101347.16;4452312;32;33040;-82
2022/03/18 07:46:17;;;;;;;;;;;;;;;7.76;33.35;101348.25;4450955;32;33851;-82
2022/03/18 07:48:45;;;;;;;;;;;;;;;8.39;32.67;101357.09;4450905;32;35162;-82
2022/03/18 07:51:12;;;;;;;;;;;;;;;8.26;32.62;101353.78;4464432;32;34561;-82
2022/03/18 07:53:39;;;;;;;;;;;;;;;8.03;33.25;101360.22;4453671;32;33406;-81
2022/03/18 07:56:07;;;;;;;;;;;;;;;8.12;32.46;101367.62;4467736;32;33731;-82
2022/03/18 07:58:34;;;;;;;;;;;;;;;8.95;32.80;101367.12;4467767;32;34056;-82
2022/03/18 08:01:01;;;;;;;;;;;;;;;9.84;30.39;101364.00;4467459;32;33448;-82
2022/03/18 08:03:29;;;;;;;;;;;;;;;9.73;29.48;101366.06;4453649;32;33245;-82
2022/03/18 08:05:56;;;;;;;;;;;;;;;9.57;29.79;101364.38;4467606;32;34957;-82
2022/03/18 08:08:23;;;;;;;;;;;;;;;9.82;30.20;101363.06;4467536;32;34912;-82
2022/03/18 08:10:51;;;;;;;;;;;;;;;10.84;29.03;101360.31;4467559;32;34503;-82
2022/03/18 08:13:18;;;;;;;;;;;;;;;10.20;29.81;101360.69;4453515;32;33416;-82
2022/03/18 08:15:45;;;;;;;;;;;;;;;9.97;30.55;101367.31;4453248;32;34864;-82
2022/03/18 08:18:13;;;;;;;;;;;;;;;10.46;29.74;101369.78;4467414;32;34352;-81
2022/03/18 08:20:40;;;;;;;;;;;;;;;10.26;30.17;101372.19;4467341;32;34737;-82
2022/03/18 08:23:14;;;;;;;;;;;;;;;10.60;29.66;101378.19;4453384;32;33738;-82
2022/03/18 08:25:42;;;;;;;;;;;;;;;10.45;29.79;101383.56;4453692;32;33088;-81
2022/03/18 08:28:09;;;;;;;;;;;;;;;9.24;32.39;101390.28;4467416;32;34053;-82
2022/03/18 08:30:36;;;;;;;;;;;;;;;10.18;30.75;101383.03;4453276;32;34951;-82
2022/03/18 08:33:04;;;;;;;;;;;;;;;10.89;29.29;101384.78;4467425;32;34349;-82
2022/03/18 08:35:31;;;;;;;;;;;;;;;9.97;30.99;101389.75;4453215;32;34265;-82
2022/03/18 08:37:58;;;;;;;;;;;;;;;10.73;29.76;101392.66;4453262;32;34430;-82
2022/03/18 08:40:26;;;;;;;;;;;;;;;10.45;29.62;101395.59;4467307;32;34456;-84
2022/03/18 08:42:54;;;;;;;;;;;;;;;10.66;29.84;101398.38;4453003;32;33497;-82
2022/03/18 08:45:22;;;;;;;;;;;;;;;11.08;29.27;101389.13;4467045;32;35149;-82
2022/03/18 08:47:49;;;;;;;;;;;;;;;11.64;28.55;101393.37;4467153;32;34388;-82
2022/03/18 08:50:17;;;;;;;;;;;;;;;10.59;29.50;101402.38;4466922;32;33579;-82
2022/03/18 08:52:45;;;;;;;;;;;;;;;10.63;29.66;101404.28;4467029;32;33784;-82
2022/03/18 08:55:13;;;;;;;;;;;;;;;11.40;29.04;101408.78;4467081;32;34234;-82
2022/03/18 08:57:40;;;;;;;;;;;;;;;12.09;28.00;101409.22;4466712;32;34467;-82
2022/03/18 09:00:08;;;;;;;;;;;;;;;12.06;27.29;101403.88;4467163;32;33563;-82
2022/03/18 09:02:36;;;;;;;;;;;;;;;11.82;27.92;101407.97;4466998;32;33253;-82
2022/03/18 09:05:04;;;;;;;;;;;;;;;12.20;27.33;101408.75;4452769;32;34348;-82
2022/03/18 09:07:32;;;;;;;;;;;;;;;12.21;28.79;101414.06;4452784;32;33903;-84
2022/03/18 09:09:59;;;;;;;;;;;;;;;12.21;28.18;101418.38;4452801;32;33507;-82
2022/03/18 09:12:27;;;;;;;;;;;;;;;12.53;28.29;101420.56;4466453;32;33470;-82
2022/03/18 09:14:54;;;;;;;;;;;;;;;12.29;29.07;101419.56;4466797;32;34858;-82
2022/03/18 09:17:21;;;;;;;;;;;;;;;11.11;30.17;101427.31;4466564;32;34909;-82
2022/03/18 09:19:48;;;;;;;;;;;;;;;11.34;30.57;101418.88;4466570;32;34551;-82
2022/03/18 09:22:16;;;;;;;;;;;;;;;12.00;28.97;101423.53;4466692;32;33859;-82
2022/03/18 09:24:44;;;;;;;;;;;;;;;12.36;28.79;101421.59;4452646;32;34895;-82
2022/03/18 09:27:11;;;;;;;;;;;;;;;12.01;29.58;101426.22;4452349;32;35083;-82
2022/03/18 09:29:38;;;;;;;;;;;;;;;12.17;29.26;101433.84;4466548;32;33304;-82
2022/03/18 09:32:06;;;;;;;;;;;;;;;12.20;29.75;101433.09;4466446;32;34018;-82
2022/03/18 09:34:34;;;;;;;;;;;;;;;12.10;29.54;101433.50;4466598;32;33757;-82
2022/03/18 09:37:02;;;;;;;;;;;;;;;11.34;31.56;101436.16;4466789;32;34761;-82
2022/03/18 09:39:29;;;;;;;;;;;;;;;11.67;31.44;101423.81;4466576;32;34253;-83
2022/03/18 09:42:02;;;;;;;;;;;;;;;11.89;31.84;101428.25;4452582;32;33974;-82
2022/03/18 09:44:39;;;;;;;;;;;;;;;12.54;30.22;101430.19;4466405;32;34171;-83
2022/03/18 09:47:07;;;;;;;;;;;;;;;12.75;29.65;101426.66;4452804;32;34602;-82
2022/03/18 09:49:35;;;;;;;;;;;;;;;11.85;31.29;101424.63;4466133;32;33896;-82
2022/03/18 09:52:02;;;;;;;;;;;;;;;11.41;31.89;101431.31;4452396;32;34293;-82
2022/03/18 09:54:31;;;;;;;;;;;;;;;11.99;30.90;101420.03;4452661;32;34291;-82
2022/03/18 09:56:59;;;;;;;;;;;;;;;11.38;32.65;101430.28;4468535;32;34780;-82
2022/03/18 09:59:27;;;;;;;;;;;;;;;11.74;32.69;101428.44;4454563;32;34518;-82
2022/03/18 10:02:34;;;;;;;;;;;;;;;12.34;30.75;101437.13;4468693;32;33536;-82
2022/03/18 10:05:03;;;;;;;;;;;;;;;12.34;31.22;101433.66;4404159;32;34194;-82
2022/03/18 10:07:32;;;;;;;;;;;;;;;12.57;31.22;101440.69;4392360;32;34264;-82
2022/03/18 10:10:17;;;;;;;;;;;;;;;13.28;30.58;101428.78;4437009;32;34270;-82
2022/03/18 10:12:47;;;;;;;;;;;;;;;13.76;30.13;101430.53;4454627;32;32567;-84
2022/03/18 10:15:16;;;;;;;;;;;;;;;12.64;30.84;101436.63;4454469;32;35086;-82
2022/03/18 10:17:48;;;;;;;;;;;;;;;13.90;29.45;101434.50;4441206;32;33826;-83
2022/03/18 10:20:50;;;;;;;;;;;;;;;12.04;33.45;101444.50;4468302;32;34913;-82
2022/03/18 10:23:19;;;;;;;;;;;;;;;11.93;33.62;101440.56;4404585;32;33417;-82
2022/03/18 10:25:50;;;;;;;;;;;;;;;12.27;33.52;101440.28;4456326;32;34112;-82
2022/03/18 10:28:18;;;;;;;;;;;;;;;12.05;35.14;101446.31;4468127;32;35306;-82
2022/03/18 10:30:47;;;;;;;;;;;;;;;12.91;34.39;101445.53;4468275;32;33820;-83
2022/03/18 10:33:14;;;;;;;;;;;;;;;12.52;34.23;101447.41;4454410;32;33428;-82
2022/03/18 10:38:27;;;;;;;;;;;;;;;12.31;34.64;101450.03;4468442;32;35337;-82
2022/03/18 10:40:55;;;;;;;;;;;;;;;12.45;34.20;101444.50;4468242;32;34160;-82
2022/03/18 10:43:22;;;;;;;;;;;;;;;13.56;32.25;101445.44;4468204;32;33317;-82
2022/03/18 10:46:05;;;;;;;;;;;;;;;13.60;32.80;101443.03;4468328;32;35014;-83
2022/03/18 10:48:33;;;;;;;;;;;;;;;13.32;33.07;101441.09;4468461;32;34032;-83
2022/03/18 10:51:04;;;;;;;;;;;;;;;13.14;33.74;101443.84;4468107;32;34085;-82
2022/03/18 10:53:32;;;;;;;;;;;;;;;13.33;33.19;101444.56;4453977;32;33020;-82
2022/03/18 10:56:01;;;;;;;;;;;;;;;14.98;30.95;101441.62;4454175;32;34205;-82
2022/03/18 10:58:31;;;;;;;;;;;;;;;14.56;31.42;101436.81;4468209;32;34380;-83
2022/03/18 11:00:59;;;;;;;;;;;;;;;15.00;29.72;101435.62;4454204;32;34509;-83
2022/03/18 11:03:28;;;;;;;;;;;;;;;14.53;30.87;101427.13;4454044;32;33052;-82
2022/03/18 11:05:55;;;;;;;;;;;;;;;12.99;33.63;101444.94;4454034;32;34402;-82
2022/03/18 11:08:23;;;;;;;;;;;;;;;12.57;34.45;101451.09;4467948;32;34452;-82
2022/03/18 11:11:07;;;;;;;;;;;;;;;13.74;33.79;101434.78;4454089;32;34276;-82
2022/03/18 11:13:53;;;;;;;;;;;;;;;14.08;33.34;101447.31;4455175;32;33059;-82
2022/03/18 11:16:23;;;;;;;;;;;;;;;14.83;31.99;101436.81;4453585;32;34391;-82
2022/03/18 11:18:50;;;;;;;;;;;;;;;14.07;32.58;101435.12;4468076;32;34553;-82
2022/03/18 11:21:18;;;;;;;;;;;;;;;14.31;32.67;101430.72;4467968;32;34145;-82
2022/03/18 11:23:45;;;;;;;;;;;;;;;14.13;33.52;101424.91;4467761;32;33994;-82
2022/03/18 11:26:14;;;;;;;;;;;;;;;13.68;33.28;101434.59;4453676;32;34193;-82
2022/03/18 11:28:41;;;;;;;;;;;;;;;12.25;36.33;101446.28;4453918;32;34182;-83
2022/03/18 11:31:17;;;;;;;;;;;;;;;13.32;34.83;101438.47;4454260;32;33923;-82
2022/03/18 11:34:20;;;;;;;;;;;;;;;13.25;34.91;101432.97;4468050;32;34364;-83
2022/03/18 11:36:48;;;;;;;;;;;;;;;14.27;32.85;101438.41;4434537;32;34873;-82
2022/03/18 11:39:19;;;;;;;;;;;;;;;14.34;32.53;101427.34;4453680;32;35062;-82
2022/03/18 11:41:50;;;;;;;;;;;;;;;13.03;34.94;101436.44;4453805;32;34324;-82
2022/03/18 11:44:36;;;;;;;;;;;;;;;12.22;36.53;101438.34;4467920;32;34806;-82
2022/03/18 11:47:18;;;;;;;;;;;;;;;12.28;36.81;101433.41;4453401;32;34347;-82
2022/03/18 11:49:46;;;;;;;;;;;;;;;12.38;36.67;101439.03;4453400;32;33002;-82
2022/03/18 11:52:13;;;;;;;;;;;;;;;13.20;35.29;101431.88;4453332;32;34026;-81
2022/03/18 11:55:10;;;;;;;;;;;;;;;12.55;36.48;101426.75;4453452;32;33789;-82
2022/03/18 11:57:45;;;;;;;;;;;;;;;12.70;35.98;101426.47;4454365;32;33815;-82
2022/03/18 12:00:31;;;;;;;;;;;;;;;11.99;37.38;101425.25;4467898;32;34787;-82
2022/03/18 12:03:00;;;;;;;;;;;;;;;13.10;35.66;101423.69;4467547;32;33925;-82
2022/03/18 12:05:32;;;;;;;;;;;;;;;13.53;34.50;101412.34;4467853;32;33073;-82
2022/03/18 12:08:03;;;;;;;;;;;;;;;13.63;34.51;101418.75;4467668;32;34261;-82
2022/03/18 12:10:38;;;;;;;;;;;;;;;13.91;34.09;101407.63;4467490;32;34005;-82
2022/03/18 12:13:06;;;;;;;;;;;;;;;13.21;35.22;101412.81;4467593;32;34847;-82
2022/03/18 12:15:37;;;;;;;;;;;;;;;13.65;34.31;101401.47;4453212;32;34205;-82
2022/03/18 12:18:04;;;;;;;;;;;;;;;13.74;34.84;101408.72;4467087;32;34938;-82
2022/03/18 12:20:52;;;;;;;;;;;;;;;14.68;32.82;101399.75;4467778;32;35339;-81
2022/03/18 12:23:19;;;;;;;;;;;;;;;14.87;32.60;101401.22;4467805;32;34846;-82
2022/03/18 12:25:46;;;;;;;;;;;;;;;15.08;32.19;101387.09;4467783;32;34256;-82
2022/03/18 12:28:13;;;;;;;;;;;;;;;15.86;31.08;101391.06;4471068;32;34208;-82
2022/03/18 12:30:41;;;;;;;;;;;;;;;15.71;31.74;101383.69;4452942;32;35091;-81
2022/03/18 12:33:08;;;;;;;;;;;;;;;14.54;33.01;101387.13;4466965;32;33681;-81
2022/03/18 12:35:44;;;;;;;;;;;;;;;13.52;34.39;101386.22;4466948;32;34368;-81
2022/03/18 12:38:14;;;;;;;;;;;;;;;14.18;34.19;101370.28;4467192;32;34568;-81
2022/03/18 12:40:53;;;;;;;;;;;;;;;14.40;33.58;101382.31;4467027;32;35250;-81
2022/03/18 12:43:21;;;;;;;;;;;;;;;14.84;33.00;101381.12;4466995;32;34175;-81
2022/03/18 12:45:48;;;;;;;;;;;;;;;14.56;33.17;101376.78;4453084;32;34114;-81
2022/03/18 12:48:16;;;;;;;;;;;;;;;15.01;33.15;101377.31;4466811;32;34404;-81
2022/03/18 12:50:45;;;;;;;;;;;;;;;15.67;31.33;101367.88;4439535;32;32965;-81
2022/03/18 12:53:14;;;;;;;;;;;;;;;16.14;30.89;101370.84;4466942;32;33855;-81
2022/03/18 12:55:43;;;;;;;;;;;;;;;15.87;30.73;101368.41;4446889;32;33268;-81
2022/03/18 12:58:12;;;;;;;;;;;;;;;15.37;31.64;101363.53;4443315;32;34360;-81
2022/03/18 13:00:40;;;;;;;;;;;;;;;15.09;32.69;101357.50;4449958;32;34474;-81
2022/03/18 13:03:13;;;;;;;;;;;;;;;15.77;31.41;101364.69;4463431;32;33938;-82
2022/03/18 13:05:40;;;;;;;;;;;;;;;15.43;31.57;101365.44;4464726;32;34341;-82